| time (UTC) | temp C | wind direction | speed KPH | gust KPH | rain 1hr cm | rain 24hr cm | rain mn cm | humidity % | barometer mb |
| 20260904075750 | 25 | 117 | 1.6 | 4.8 | 0.00 | 0.00 | 0.00 | 74 | 1015.3 |
| 20260904074745 | 25 | 120 | 0.0 | 3.2 | 0.00 | 0.00 | 0.00 | 74 | 1015.4 |
| 20260904073746 | 25 | 121 | 1.6 | 3.2 | 0.00 | 0.00 | 0.00 | 74 | 1015.3 |
| 20260904072746 | 24 | 125 | 0.0 | 1.6 | 0.00 | 0.00 | 0.00 | 75 | 1015.3 |
| 20260904071746 | 24 | 125 | 0.0 | 0.0 | 0.00 | 0.00 | 0.00 | 75 | 1015.5 |
| 20260904070747 | 24 | 125 | 0.0 | 0.0 | 0.00 | 0.00 | 0.00 | 75 | 1015.5 |
| 20260904065745 | 25 | 125 | 0.0 | 0.0 | 0.00 | 0.00 | 0.00 | 74 | 1015.5 |
| 20260904064743 | 25 | 125 | 0.0 | 0.0 | 0.00 | 0.00 | 0.00 | 73 | 1015.5 |
| 20260904064222 | 25 | 125 | 0.0 | 0.0 | 0.00 | 0.00 | 0.00 | 72 | 1015.5 |
| 20260904062736 | 25 | 125 | 0.0 | 0.0 | 0.00 | 0.00 | 0.00 | 71 | 1015.4 |
| 20260904061736 | 26 | 125 | 0.0 | 0.0 | 0.00 | 0.00 | 0.00 | 69 | 1015.5 |
| 20260904060735 | 26 | 125 | 0.0 | 0.0 | 0.00 | 0.00 | 0.00 | 68 | 1015.4 |
| 20260904055736 | 26 | 125 | 1.6 | 3.2 | 0.00 | 0.00 | 0.00 | 68 | 1015.3 |
| 20260904054736 | 26 | 115 | 1.6 | 4.8 | 0.00 | 0.00 | 0.00 | 69 | 1015.2 |
| 20260904053735 | 26 | 123 | 1.6 | 4.8 | 0.00 | 0.00 | 0.00 | 70 | 1015.2 |
| 20260904052735 | 26 | 108 | 0.0 | 1.6 | 0.00 | 0.00 | 0.00 | 70 | 1015.2 |
| 20260904051732 | 26 | 108 | 0.0 | 0.0 | 0.00 | 0.00 | 0.00 | 69 | 1015.2 |
| 20260904050732 | 26 | 108 | 0.0 | 0.0 | 0.00 | 0.00 | 0.00 | 68 | 1015.1 |
| 20260904045730 | 27 | 108 | 0.0 | 0.0 | 0.00 | 0.00 | 0.00 | 67 | 1015.2 |
| 20260904044726 | 27 | 108 | 0.0 | 0.0 | 0.00 | 0.00 | 0.00 | 64 | 1015.3 |
| 20260904044202 | 27 | 108 | 0.0 | 1.6 | 0.00 | 0.00 | 0.00 | 63 | 1015.2 |
| 20260904042723 | 27 | 108 | 0.0 | 4.8 | 0.00 | 0.00 | 0.00 | 62 | 1015.2 |
| 20260904040723 | 28 | 107 | 1.6 | 4.8 | 0.00 | 0.00 | 0.00 | 62 | 1015.1 |
| 20260904035723 | 27 | 92 | 0.0 | 4.8 | 0.00 | 0.00 | 0.00 | 63 | 1014.9 |
| 20260904034716 | 28 | 113 | 1.6 | 3.2 | 0.00 | 0.00 | 0.00 | 61 | 1014.8 |
| 20260904033715 | 28 | 123 | 1.6 | 3.2 | 0.00 | 0.00 | 0.00 | 59 | 1014.9 |
| 20260904033155 | 29 | 121 | 3.2 | 4.8 | 0.00 | 0.00 | 0.00 | 56 | 1015.1 |
| 20260904031712 | 30 | 128 | 3.2 | 4.8 | 0.00 | 0.00 | 0.00 | 56 | 1015.0 |
| 20260904030710 | 30 | 134 | 4.8 | 6.4 | 0.00 | 0.00 | 0.00 | 55 | 1014.9 |
| 20260904025712 | 30 | 137 | 4.8 | 8.0 | 0.00 | 0.00 | 0.00 | 54 | 1014.9 |
| 20260904024711 | 30 | 138 | 4.8 | 6.4 | 0.00 | 0.00 | 0.00 | 54 | 1014.8 |
| 20260904023711 | 30 | 134 | 4.8 | 9.7 | 0.00 | 0.00 | 0.00 | 53 | 1014.7 |
| 20260904022712 | 30 | 136 | 4.8 | 6.4 | 0.00 | 0.00 | 0.00 | 53 | 1014.5 |
| 20260904021705 | 31 | 142 | 4.8 | 8.0 | 0.00 | 0.00 | 0.00 | 52 | 1014.5 |
| 20260904020705 | 31 | 152 | 4.8 | 9.7 | 0.00 | 0.00 | 0.00 | 52 | 1014.2 |
| 20260904015704 | 31 | 142 | 4.8 | 6.4 | 0.00 | 0.00 | 0.00 | 51 | 1014.2 |
| 20260904014704 | 31 | 136 | 4.8 | 6.4 | 0.00 | 0.00 | 0.00 | 50 | 1014.0 |
| 20260904014153 | 31 | 136 | 3.2 | 6.4 | 0.00 | 0.00 | 0.00 | 50 | 1013.9 |
| 20260904012704 | 31 | 158 | 4.8 | 8.0 | 0.00 | 0.00 | 0.00 | 49 | 1013.6 |
| 20260904011706 | 32 | 158 | 4.8 | 8.0 | 0.00 | 0.00 | 0.00 | 48 | 1013.5 |
| 20260904010705 | 32 | 137 | 4.8 | 11.3 | 0.00 | 0.00 | 0.00 | 47 | 1013.4 |
| 20260904005705 | 32 | 123 | 6.4 | 9.7 | 0.00 | 0.00 | 0.00 | 47 | 1013.4 |
| 20260904004703 | 32 | 128 | 6.4 | 11.3 | 0.00 | 0.00 | 0.00 | 46 | 1013.4 |
| 20260904004140 | 33 | 138 | 8.0 | 12.9 | 0.00 | 0.00 | 0.00 | 46 | 1013.4 |
| 20260904002701 | 33 | 129 | 8.0 | 14.5 | 0.00 | 0.00 | 0.00 | 45 | 1013.3 |
| 20260904002137 | 33 | 155 | 11.3 | 19.3 | 0.00 | 0.00 | 0.00 | 44 | 1013.4 |
| 20260904000703 | 33 | 166 | 12.9 | 19.3 | 0.00 | 0.00 | 0.00 | 44 | 1013.4 |
| 20260903235703 | 34 | 176 | 9.7 | 14.5 | 0.00 | 0.00 | 0.00 | 44 | 1013.4 |
| 20260903234702 | 34 | 142 | 11.3 | 17.7 | 0.00 | 0.00 | 0.00 | 43 | 1013.3 |
| 20260903233703 | 34 | 130 | 11.3 | 24.1 | 0.00 | 0.00 | 0.00 | 42 | 1013.3 |
| 20260903232704 | 35 | 152 | 12.9 | 25.7 | 0.00 | 0.00 | 0.00 | 42 | 1013.2 |
| 20260903231701 | 34 | 189 | 14.5 | 25.7 | 0.00 | 0.00 | 0.00 | 41 | 1013.1 |
| 20260903230702 | 35 | 166 | 12.9 | 24.1 | 0.00 | 0.00 | 0.00 | 42 | 1013.1 |
| 20260903230142 | 35 | 155 | 14.5 | 25.7 | 0.00 | 0.00 | 0.00 | 41 | 1013.2 |
| 20260903224702 | 35 | 184 | 12.9 | 20.9 | 0.00 | 0.00 | 0.00 | 41 | 1013.3 |
| 20260903223703 | 35 | 157 | 11.3 | 22.5 | 0.00 | 0.00 | 0.00 | 40 | 1013.1 |
| 20260903222701 | 35 | 168 | 16.1 | 30.6 | 0.00 | 0.00 | 0.00 | 41 | 1013.2 |
| 20260903221703 | 35 | 161 | 11.3 | 16.1 | 0.00 | 0.00 | 0.00 | 40 | 1013.2 |
| 20260903220703 | 36 | 161 | 11.3 | 24.1 | 0.00 | 0.00 | 0.00 | 40 | 1013.3 |
| 20260903215702 | 36 | 153 | 14.5 | 32.2 | 0.00 | 0.00 | 0.00 | 40 | 1013.4 |
| 20260903214701 | 35 | 168 | 14.5 | 22.5 | 0.00 | 0.00 | 0.00 | 41 | 1013.3 |
| 20260903214142 | 35 | 174 | 14.5 | 29.0 | 0.00 | 0.00 | 0.00 | 42 | 1013.6 |
| 20260903212701 | 36 | 171 | 14.5 | 24.1 | 0.00 | 0.00 | 0.00 | 41 | 1013.7 |
| 20260903211702 | 36 | 187 | 14.5 | 22.5 | 0.00 | 0.00 | 0.00 | 41 | 1013.7 |
| 20260903211134 | 35 | 161 | 12.9 | 27.4 | 0.00 | 0.00 | 0.00 | 41 | 1013.9 |
| 20260903205658 | 35 | 171 | 14.5 | 27.4 | 0.00 | 0.00 | 0.00 | 42 | 1013.8 |
| 20260903204657 | 35 | 173 | 14.5 | 27.4 | 0.00 | 0.00 | 0.00 | 43 | 1014.0 |
| 20260903203658 | 35 | 175 | 11.3 | 24.1 | 0.00 | 0.00 | 0.00 | 43 | 1014.0 |
| 20260903202659 | 35 | 153 | 12.9 | 29.0 | 0.00 | 0.00 | 0.00 | 43 | 1014.1 |
| 20260903201657 | 36 | 182 | 11.3 | 29.0 | 0.00 | 0.00 | 0.00 | 41 | 1014.1 |
| 20260903200659 | 36 | 182 | 11.3 | 19.3 | 0.00 | 0.00 | 0.00 | 40 | 1014.2 |
| 20260903195700 | 35 | 144 | 12.9 | 22.5 | 0.00 | 0.00 | 0.00 | 42 | 1014.2 |
| 20260903194657 | 36 | 123 | 14.5 | 27.4 | 0.00 | 0.00 | 0.00 | 41 | 1014.3 |
| 20260903193658 | 36 | 129 | 11.3 | 20.9 | 0.00 | 0.00 | 0.00 | 41 | 1014.3 |
| 20260903192659 | 35 | 190 | 14.5 | 32.2 | 0.00 | 0.00 | 0.00 | 43 | 1014.4 |
| 20260903191659 | 36 | 167 | 14.5 | 32.2 | 0.00 | 0.00 | 0.00 | 41 | 1014.5 |
| 20260903190659 | 35 | 164 | 14.5 | 32.2 | 0.00 | 0.00 | 0.00 | 42 | 1014.5 |
| 20260903185658 | 35 | 196 | 14.5 | 25.7 | 0.00 | 0.00 | 0.00 | 42 | 1014.6 |
| 20260903184655 | 35 | 175 | 14.5 | 29.0 | 0.00 | 0.00 | 0.00 | 42 | 1014.9 |
| 20260903183657 | 35 | 155 | 17.7 | 32.2 | 0.00 | 0.00 | 0.00 | 41 | 1014.9 |
| 20260903182654 | 35 | 165 | 17.7 | 35.4 | 0.00 | 0.00 | 0.00 | 42 | 1015.1 |
| 20260903181655 | 35 | 163 | 17.7 | 29.0 | 0.00 | 0.00 | 0.00 | 43 | 1015.1 |
| 20260903180651 | 35 | 163 | 16.1 | 35.4 | 0.00 | 0.00 | 0.00 | 43 | 1015.2 |
| 20260903175651 | 34 | 182 | 16.1 | 27.4 | 0.00 | 0.00 | 0.00 | 43 | 1015.6 |
| 20260903174648 | 34 | 171 | 9.7 | 22.5 | 0.00 | 0.00 | 0.00 | 45 | 1015.6 |
| 20260903173645 | 34 | 176 | 14.5 | 29.0 | 0.00 | 0.00 | 0.00 | 46 | 1015.9 |
| 20260903172645 | 34 | 194 | 14.5 | 25.7 | 0.00 | 0.00 | 0.00 | 46 | 1016.0 |
| 20260903172126 | 33 | 186 | 14.5 | 25.7 | 0.00 | 0.00 | 0.00 | 47 | 1016.2 |
| 20260903170644 | 33 | 175 | 14.5 | 27.4 | 0.00 | 0.00 | 0.00 | 48 | 1016.3 |
| 20260903165637 | 33 | 146 | 14.5 | 22.5 | 0.00 | 0.00 | 0.00 | 49 | 1016.4 |
| 20260903164637 | 33 | 177 | 14.5 | 27.4 | 0.00 | 0.00 | 0.00 | 49 | 1016.5 |
| 20260903162638 | 32 | 200 | 14.5 | 29.0 | 0.00 | 0.00 | 0.00 | 51 | 1016.5 |
| 20260903161637 | 32 | 205 | 17.7 | 29.0 | 0.00 | 0.00 | 0.00 | 51 | 1016.6 |
| 20260903160637 | 32 | 179 | 16.1 | 32.2 | 0.00 | 0.00 | 0.00 | 51 | 1016.6 |
| 20260903155639 | 31 | 163 | 17.7 | 27.4 | 0.00 | 0.00 | 0.00 | 52 | 1016.7 |
| 20260903154637 | 31 | 183 | 14.5 | 25.7 | 0.00 | 0.00 | 0.00 | 53 | 1016.7 |
| 20260903153638 | 31 | 174 | 12.9 | 22.5 | 0.00 | 0.00 | 0.00 | 54 | 1016.8 |
| 20260903152632 | 31 | 167 | 12.9 | 27.4 | 0.00 | 0.00 | 0.00 | 55 | 1016.8 |
| 20260903151633 | 30 | 178 | 11.3 | 22.5 | 0.00 | 0.00 | 0.00 | 56 | 1017.0 |
| 20260903145631 | 30 | 165 | 9.7 | 24.1 | 0.00 | 0.00 | 0.00 | 59 | 1017.0 |
| 20260903144630 | 29 | 156 | 9.7 | 20.9 | 0.00 | 0.00 | 0.00 | 61 | 1017.0 |
| 20260903143630 | 28 | 157 | 9.7 | 16.1 | 0.00 | 0.00 | 0.00 | 63 | 1017.0 |
| 20260903142630 | 28 | 158 | 12.9 | 17.7 | 0.00 | 0.00 | 0.00 | 64 | 1017.2 |
| 20260903142117 | 28 | 140 | 12.9 | 22.5 | 0.00 | 0.00 | 0.00 | 65 | 1017.2 |
| 20260903140630 | 27 | 153 | 11.3 | 22.5 | 0.00 | 0.00 | 0.00 | 67 | 1017.3 |
| 20260903135629 | 27 | 153 | 9.7 | 17.7 | 0.00 | 0.00 | 0.00 | 68 | 1017.4 |
| 20260903134629 | 27 | 180 | 9.7 | 17.7 | 0.00 | 0.00 | 0.00 | 69 | 1017.5 |
| 20260903134112 | 26 | 165 | 8.0 | 16.1 | 0.00 | 0.00 | 0.00 | 72 | 1017.5 |
| 20260903132630 | 26 | 168 | 6.4 | 9.7 | 0.00 | 0.00 | 0.00 | 73 | 1017.5 |
| 20260903132109 | 26 | 148 | 4.8 | 6.4 | 0.00 | 0.00 | 0.00 | 75 | 1017.3 |
| 20260903130629 | 25 | 172 | 4.8 | 8.0 | 0.00 | 0.00 | 0.00 | 75 | 1017.3 |
| 20260903125630 | 25 | 157 | 3.2 | 6.4 | 0.00 | 0.00 | 0.00 | 78 | 1017.4 |
| 20260903124632 | 24 | 147 | 3.2 | 6.4 | 0.00 | 0.00 | 0.00 | 81 | 1017.3 |
| 20260903124110 | 23 | 126 | 0.0 | 4.8 | 0.00 | 0.00 | 0.00 | 83 | 1017.3 |
| 20260903122630 | 23 | 132 | 0.0 | 0.0 | 0.00 | 0.00 | 0.00 | 83 | 1017.2 |
| 20260903121628 | 23 | 132 | 0.0 | 0.0 | 0.00 | 0.00 | 0.00 | 84 | 1017.0 |
| 20260903120626 | 22 | 132 | 0.0 | 0.0 | 0.00 | 0.00 | 0.00 | 84 | 1016.9 |
| 20260903115625 | 22 | 132 | 0.0 | 0.0 | 0.00 | 0.00 | 0.00 | 85 | 1016.8 |
| 20260903114625 | 22 | 132 | 0.0 | 0.0 | 0.00 | 0.00 | 0.00 | 84 | 1016.9 |
| 20260903113625 | 23 | 132 | 0.0 | 0.0 | 0.00 | 0.00 | 0.00 | 83 | 1016.8 |
| 20260903112626 | 23 | 132 | 0.0 | 0.0 | 0.00 | 0.00 | 0.00 | 82 | 1016.6 |
| 20260903111627 | 23 | 132 | 0.0 | 0.0 | 0.00 | 0.00 | 0.00 | 82 | 1016.6 |
| 20260903105626 | 24 | 132 | 0.0 | 0.0 | 0.00 | 0.00 | 0.00 | 80 | 1016.6 |
| 20260903104623 | 24 | 132 | 0.0 | 0.0 | 0.00 | 0.00 | 0.00 | 79 | 1016.5 |
| 20260903103624 | 23 | 132 | 0.0 | 0.0 | 0.00 | 0.00 | 0.00 | 80 | 1016.4 |
| 20260903102617 | 23 | 132 | 0.0 | 3.2 | 0.00 | 0.00 | 0.00 | 80 | 1016.4 |
| 20260903101617 | 24 | 136 | 1.6 | 6.4 | 0.00 | 0.00 | 0.00 | 80 | 1016.5 |
| 20260903100618 | 24 | 131 | 3.2 | 6.4 | 0.00 | 0.00 | 0.00 | 80 | 1016.4 |
| 20260903095617 | 23 | 117 | 3.2 | 9.7 | 0.00 | 0.00 | 0.00 | 80 | 1016.4 |
| 20260903094617 | 24 | 128 | 3.2 | 4.8 | 0.00 | 0.00 | 0.00 | 80 | 1016.4 |
| 20260903093618 | 25 | 119 | 0.0 | 6.4 | 0.00 | 0.00 | 0.00 | 77 | 1016.4 |
| 20260903093056 | 25 | 124 | 0.0 | 0.0 | 0.00 | 0.00 | 0.00 | 75 | 1016.4 |
| 20260903091618 | 25 | 165 | 0.0 | 0.0 | 0.00 | 0.00 | 0.00 | 75 | 1016.5 |
| 20260903090618 | 25 | 155 | 0.0 | 0.0 | 0.00 | 0.00 | 0.00 | 74 | 1016.3 |
| 20260903085614 | 25 | 130 | 0.0 | 0.0 | 0.00 | 0.00 | 0.00 | 74 | 1016.3 |
| 20260903084614 | 26 | 130 | 0.0 | 0.0 | 0.00 | 0.00 | 0.00 | 73 | 1016.3 |
| 20260903083613 | 26 | 130 | 0.0 | 0.0 | 0.00 | 0.00 | 0.00 | 73 | 1016.3 |
| 20260903083114 | 26 | 133 | 4.8 | 6.4 | 0.00 | 0.00 | 0.00 | 73 | 1016.2 |
| 20260903081614 | 25 | 132 | 4.8 | 6.4 | 0.00 | 0.00 | 0.00 | 73 | 1016.3 |
| 20260903080612 | 25 | 130 | 3.2 | 4.8 | 0.00 | 0.00 | 0.00 | 73 | 1016.1 |